createdAt,value
2022-11-21T07:41:47.311Z,4.30
2022-11-21T07:44:15.456Z,6.10
2022-11-21T07:46:43.374Z,6.10
2022-11-21T07:49:11.421Z,6.10
2022-11-21T07:51:39.563Z,6.10
2022-11-21T07:54:07.998Z,6.30
2022-11-21T07:56:36.065Z,6.50
2022-11-21T07:59:05.272Z,7.00
2022-11-21T08:01:33.371Z,7.70
2022-11-21T08:04:01.253Z,8.00
2022-11-21T08:06:29.424Z,8.50
2022-11-21T08:08:57.345Z,8.70
2022-11-21T08:11:25.821Z,8.90
2022-11-21T08:13:53.822Z,8.80
2022-11-21T08:16:27.853Z,8.50
2022-11-21T08:18:56.054Z,8.40
2022-11-21T08:21:23.920Z,8.20
2022-11-21T08:23:52.030Z,8.00
2022-11-21T08:26:20.131Z,7.90
2022-11-21T08:28:48.546Z,7.80
2022-11-21T08:31:16.515Z,8.20
2022-11-21T08:33:45.754Z,8.70
2022-11-21T08:36:13.787Z,8.80
2022-11-21T08:38:41.911Z,8.90
2022-11-21T08:41:30.085Z,8.80
2022-11-21T08:43:57.956Z,8.70
2022-11-21T08:46:28.238Z,8.50
2022-11-21T08:48:57.980Z,8.40
2022-11-21T08:51:26.182Z,8.30
2022-11-21T08:53:54.391Z,8.10
2022-11-21T08:56:22.343Z,8.20
2022-11-21T08:58:50.230Z,8.30
2022-11-21T09:01:18.464Z,8.30
2022-11-21T09:03:46.451Z,8.60
2022-11-21T09:06:15.993Z,8.70
2022-11-21T09:08:44.031Z,8.60
2022-11-21T09:11:13.221Z,8.90
2022-11-21T09:13:41.315Z,9.10
2022-11-21T09:16:29.976Z,9.30
2022-11-21T09:18:58.279Z,9.70
2022-11-21T09:21:27.641Z,10.50
2022-11-21T09:23:55.536Z,10.70
2022-11-21T09:26:23.562Z,10.80
2022-11-21T09:28:51.646Z,11.30
2022-11-21T09:31:19.699Z,11.60
2022-11-21T09:33:49.722Z,11.50
2022-11-21T09:36:21.718Z,11.50
2022-11-21T09:38:53.279Z,12.20
2022-11-21T09:41:46.864Z,13.60
2022-11-21T09:44:22.647Z,15.00
2022-11-21T09:46:55.453Z,15.80
2022-11-21T09:49:26.458Z,16.70
2022-11-21T09:51:57.968Z,17.90
2022-11-21T09:54:33.638Z,18.50
2022-11-21T09:57:02.790Z,18.90
2022-11-21T09:59:35.174Z,19.20
2022-11-21T10:02:03.720Z,18.60
2022-11-21T10:04:32.991Z,17.50
2022-11-21T10:07:05.809Z,16.40
2022-11-21T10:09:48.331Z,16.20
2022-11-21T10:12:40.811Z,17.30
2022-11-21T10:15:25.065Z,17.20
2022-11-21T10:18:06.680Z,16.70
2022-11-21T10:20:51.420Z,16.80
2022-11-21T10:23:46.202Z,16.50
2022-11-21T10:26:24.391Z,15.80
2022-11-21T10:28:56.345Z,15.10
2022-11-21T10:31:25.407Z,14.50
2022-11-21T10:33:55.481Z,13.90
2022-11-21T10:36:27.848Z,13.20
2022-11-21T10:39:02.111Z,12.80
2022-11-21T10:41:41.953Z,13.00
2022-11-21T10:44:34.454Z,14.20
2022-11-21T10:47:03.235Z,15.90
2022-11-21T10:49:35.593Z,17.20
2022-11-21T10:52:08.227Z,17.50
2022-11-21T10:55:07.190Z,17.80
2022-11-21T10:57:45.366Z,18.20
2022-11-21T11:00:31.108Z,18.00
2022-11-21T11:03:08.742Z,17.00
2022-11-21T11:05:37.756Z,16.00
2022-11-21T11:08:08.608Z,15.20
2022-11-21T11:10:38.499Z,14.30
2022-11-21T11:13:50.004Z,13.70
2022-11-21T11:16:21.854Z,13.00
2022-11-21T11:18:56.829Z,12.10
2022-11-21T11:21:26.788Z,11.70
2022-11-21T11:23:56.141Z,11.20
2022-11-21T11:26:28.847Z,11.00
2022-11-21T11:29:14.452Z,10.90
2022-11-21T11:31:44.550Z,10.80
2022-11-21T11:34:15.272Z,10.70
2022-11-21T11:36:56.635Z,10.70
2022-11-21T11:39:40.876Z,10.70
2022-11-21T11:42:51.043Z,10.70
2022-11-21T11:45:59.879Z,10.50
2022-11-21T11:48:30.738Z,10.50
2022-11-21T11:51:04.297Z,10.30
2022-11-21T11:53:35.723Z,10.30
2022-11-21T11:56:09.739Z,10.30
2022-11-21T11:58:42.886Z,10.10
2022-11-21T12:01:17.786Z,10.20
2022-11-21T12:03:57.784Z,10.10
2022-11-21T12:07:04.076Z,10.10
2022-11-21T12:09:27.135Z,10.10
2022-11-21T12:12:09.700Z,10.10
2022-11-21T12:15:06.191Z,10.10
2022-11-21T12:17:42.054Z,10.30
2022-11-21T12:20:20.964Z,10.30
2022-11-21T12:22:51.679Z,10.30
2022-11-21T12:25:22.964Z,10.40
2022-11-21T12:27:57.516Z,10.30
2022-11-21T12:30:54.645Z,10.20
2022-11-21T12:33:25.360Z,10.20
2022-11-21T12:36:18.994Z,10.20
2022-11-21T12:38:58.928Z,10.30
2022-11-21T12:41:51.389Z,10.10
2022-11-21T12:44:37.666Z,10.10
2022-11-21T12:47:21.886Z,10.20
2022-11-21T12:50:13.402Z,10.30
2022-11-21T12:53:00.884Z,10.30
2022-11-21T12:55:37.415Z,10.50
2022-11-21T12:58:14.924Z,10.60
2022-11-21T13:00:59.669Z,10.60
2022-11-21T13:03:43.121Z,10.50
2022-11-21T13:06:18.784Z,10.60
2022-11-21T13:08:49.581Z,10.80
2022-11-21T13:11:46.145Z,10.80
2022-11-21T13:14:20.420Z,11.00
2022-11-21T13:16:54.408Z,11.10
2022-11-21T13:19:26.402Z,10.90
2022-11-21T13:21:56.137Z,10.70
2022-11-21T13:24:56.401Z,10.50
2022-11-21T13:27:33.346Z,10.60
2022-11-21T13:30:23.126Z,10.60
2022-11-21T13:32:52.984Z,10.50
2022-11-21T13:35:56.815Z,10.40
2022-11-21T13:38:26.106Z,10.30
2022-11-21T13:41:11.875Z,10.40
2022-11-21T13:43:39.838Z,10.40
2022-11-21T13:46:07.966Z,10.40
2022-11-21T13:48:58.017Z,10.50
2022-11-21T13:51:52.031Z,10.60
2022-11-21T13:54:54.956Z,10.70
2022-11-21T13:57:36.212Z,10.80
2022-11-21T14:00:35.037Z,10.80
2022-11-21T14:04:01.070Z,11.00
2022-11-21T14:06:37.933Z,11.00
2022-11-21T14:09:21.938Z,10.90
2022-11-21T14:11:53.477Z,11.00
2022-11-21T14:14:35.756Z,11.00
2022-11-21T14:17:14.386Z,10.80
2022-11-21T14:19:44.008Z,10.70
2022-11-21T14:22:18.549Z,10.50
2022-11-21T14:24:47.225Z,10.40
2022-11-21T14:27:28.324Z,10.20
2022-11-21T14:29:56.901Z,10.10
2022-11-21T14:32:28.761Z,10.00
2022-11-21T14:35:22.920Z,9.90
2022-11-21T14:37:58.965Z,9.70
2022-11-21T14:40:27.635Z,9.50
2022-11-21T14:42:57.177Z,9.40
2022-11-21T14:45:28.246Z,9.30
2022-11-21T14:47:56.183Z,9.20
2022-11-21T14:50:29.490Z,9.10
2022-11-21T14:53:00.372Z,9.00
2022-11-21T14:55:31.703Z,8.90
2022-11-21T14:58:05.014Z,8.80
2022-11-21T15:01:02.914Z,8.60
2022-11-21T15:03:24.417Z,8.60
2022-11-21T15:06:05.307Z,8.50
2022-11-21T15:09:51.412Z,8.50
2022-11-21T15:11:26.926Z,8.60
2022-11-21T15:14:15.395Z,8.50
2022-11-21T15:16:44.509Z,8.40
2022-11-21T15:19:12.998Z,8.30
2022-11-21T15:21:46.405Z,8.20
2022-11-21T15:24:19.680Z,8.10
2022-11-21T15:26:48.297Z,8.00
2022-11-21T15:29:22.671Z,8.10
2022-11-21T15:32:14.078Z,8.10
2022-11-21T15:34:44.075Z,8.00
2022-11-21T15:37:17.579Z,8.10
2022-11-21T15:39:48.000Z,7.90
2022-11-21T15:42:38.732Z,7.70
2022-11-21T15:45:26.157Z,7.70
2022-11-21T15:47:55.659Z,7.80
2022-11-21T15:50:25.194Z,7.80
2022-11-21T15:52:54.749Z,7.80
2022-11-21T15:55:26.356Z,7.70
2022-11-21T15:57:54.309Z,7.40
2022-11-21T16:00:22.984Z,7.40
2022-11-21T16:02:52.515Z,7.30
2022-11-21T16:05:20.540Z,7.40
2022-11-21T16:07:48.931Z,7.40
2022-11-21T16:10:24.415Z,7.50
2022-11-21T16:12:55.620Z,7.40
2022-11-21T16:15:24.070Z,7.20
2022-11-21T16:17:54.345Z,7.00
2022-11-21T16:20:22.299Z,7.00
2022-11-21T16:22:50.584Z,6.90
2022-11-21T16:25:18.656Z,6.90
2022-11-21T16:27:47.153Z,7.00
2022-11-21T16:30:16.074Z,6.90
2022-11-21T16:32:44.139Z,6.90
2022-11-21T16:35:13.660Z,6.80
2022-11-21T16:37:42.098Z,6.70
2022-11-21T16:40:11.411Z,6.60
2022-11-21T16:42:39.494Z,6.70
2022-11-21T16:45:08.130Z,6.60
2022-11-21T16:47:38.050Z,6.50
2022-11-21T16:50:07.527Z,6.60
2022-11-21T16:52:37.312Z,6.50
2022-11-21T16:55:06.018Z,6.40
2022-11-21T16:57:35.434Z,6.40
2022-11-21T17:00:04.699Z,6.30
2022-11-21T17:02:32.799Z,6.30
2022-11-21T17:05:00.697Z,6.30
2022-11-21T17:07:28.919Z,6.30
2022-11-21T17:09:58.275Z,6.30
2022-11-21T17:12:26.345Z,6.20
2022-11-21T17:14:54.889Z,6.20
2022-11-21T17:17:23.062Z,6.20
2022-11-21T17:19:50.971Z,6.10
2022-11-21T17:22:24.355Z,6.10
2022-11-21T17:24:53.629Z,6.00
2022-11-21T17:27:24.301Z,6.00
2022-11-21T17:29:52.667Z,5.90
2022-11-21T17:32:20.746Z,5.90
2022-11-21T17:34:48.705Z,5.90
2022-11-21T17:37:16.851Z,5.90
2022-11-21T17:39:44.755Z,5.90
2022-11-21T17:42:12.857Z,5.80
2022-11-21T17:44:42.153Z,5.80
2022-11-21T17:47:10.212Z,5.80
2022-11-21T17:49:38.219Z,5.80
2022-11-21T17:52:07.698Z,5.90
2022-11-21T17:54:35.788Z,5.90
2022-11-21T17:57:03.797Z,5.80
2022-11-21T17:59:31.869Z,5.70
2022-11-21T18:02:02.159Z,5.60
2022-11-21T18:04:30.425Z,5.70
2022-11-21T18:06:58.624Z,5.80
2022-11-21T18:09:27.078Z,5.90
2022-11-21T18:11:55.260Z,5.70
2022-11-21T18:14:23.160Z,5.60
2022-11-21T18:16:53.564Z,5.60
2022-11-21T18:19:24.266Z,5.60
2022-11-21T18:21:53.085Z,5.50
2022-11-21T18:24:21.133Z,5.40
2022-11-21T18:26:49.005Z,5.40
2022-11-21T18:32:05.387Z,5.30
2022-11-21T18:34:34.869Z,5.30
2022-11-21T18:37:02.940Z,5.30
2022-11-21T18:39:31.082Z,5.20
2022-11-21T18:41:59.316Z,5.30
2022-11-21T18:44:27.353Z,5.20
2022-11-21T18:46:55.504Z,5.20
2022-11-21T18:49:23.682Z,5.10
2022-11-21T18:51:52.961Z,5.20
2022-11-21T18:54:20.823Z,5.20
2022-11-21T18:56:49.109Z,5.20
2022-11-21T18:59:17.154Z,5.20
2022-11-21T19:01:45.121Z,5.00
2022-11-21T19:04:13.311Z,5.10
2022-11-21T19:06:41.366Z,5.20
2022-11-21T19:09:12.011Z,5.20
2022-11-21T19:11:40.720Z,5.10
2022-11-21T19:14:08.888Z,5.10
2022-11-21T19:16:36.870Z,5.00
2022-11-21T19:21:55.686Z,5.10
2022-11-21T19:24:25.352Z,4.90
2022-11-21T19:26:53.288Z,4.90
2022-11-21T19:29:21.216Z,4.90
2022-11-21T19:31:49.362Z,4.70
2022-11-21T19:34:17.872Z,4.70
2022-11-21T19:36:46.531Z,4.50
2022-11-21T19:39:14.607Z,4.30
2022-11-21T19:41:44.112Z,4.40
2022-11-21T19:44:12.358Z,4.50
2022-11-21T19:46:40.859Z,4.50
2022-11-21T19:49:11.067Z,4.50
2022-11-21T19:51:40.438Z,4.40
2022-11-21T19:54:10.816Z,4.50
2022-11-21T19:56:38.858Z,4.60
2022-11-21T19:59:08.221Z,4.70
2022-11-21T20:01:36.751Z,4.60
2022-11-21T20:04:07.298Z,4.40
2022-11-21T20:06:37.782Z,4.50
2022-11-21T20:09:07.679Z,4.50
2022-11-21T20:11:36.758Z,4.50
2022-11-21T20:14:04.876Z,4.50
2022-11-21T20:16:36.285Z,4.50
2022-11-21T20:19:07.609Z,4.50
2022-11-21T20:21:36.107Z,4.50
2022-11-21T20:24:04.335Z,4.50
2022-11-21T20:26:33.023Z,4.60
2022-11-21T20:29:01.262Z,4.40
2022-11-21T20:31:30.556Z,4.60
2022-11-21T20:34:08.075Z,4.60
2022-11-21T20:36:37.649Z,4.60
2022-11-21T20:39:08.001Z,4.50
2022-11-21T20:41:37.310Z,4.60
2022-11-21T20:46:56.791Z,4.70
2022-11-21T20:49:26.273Z,4.50
2022-11-21T20:54:42.203Z,4.50
2022-11-21T20:57:14.856Z,4.60
2022-11-21T20:59:43.710Z,4.60
2022-11-21T21:02:14.540Z,4.60
2022-11-21T21:04:43.930Z,4.50
2022-11-21T21:07:12.123Z,4.50
2022-11-21T21:09:40.432Z,4.50
2022-11-21T21:12:08.851Z,4.60
2022-11-21T21:14:37.283Z,4.60
2022-11-21T21:17:05.244Z,4.60
2022-11-21T21:19:33.268Z,4.50
2022-11-21T21:22:05.084Z,4.60
2022-11-21T21:24:33.380Z,4.60
2022-11-21T21:27:01.330Z,4.70
2022-11-21T21:29:29.886Z,4.70
2022-11-21T21:31:58.054Z,4.70
2022-11-21T21:34:26.071Z,4.70
2022-11-21T21:36:53.999Z,4.60
2022-11-21T21:39:23.522Z,4.60
2022-11-21T21:41:51.636Z,4.70
2022-11-21T21:44:19.780Z,4.80
2022-11-21T21:46:47.717Z,4.60
2022-11-21T21:49:16.055Z,4.60
2022-11-21T21:51:44.035Z,4.70
2022-11-21T21:54:18.380Z,4.60
2022-11-21T21:56:48.397Z,4.60
2022-11-21T21:59:18.226Z,4.60
2022-11-21T22:01:46.554Z,4.70
2022-11-21T22:04:14.862Z,4.50
2022-11-21T22:06:42.870Z,4.60
2022-11-21T22:09:11.252Z,4.60
2022-11-21T22:11:40.068Z,4.60
2022-11-21T22:14:13.066Z,4.60
2022-11-21T22:16:41.558Z,4.60
2022-11-21T22:19:09.956Z,4.70
2022-11-21T22:21:39.269Z,4.70
2022-11-21T22:24:28.707Z,4.80
2022-11-21T22:26:57.180Z,4.80
2022-11-21T22:29:26.506Z,4.90
2022-11-21T22:31:54.695Z,4.90
2022-11-21T22:34:22.888Z,4.90
2022-11-21T22:36:51.237Z,4.80
2022-11-21T22:39:19.142Z,4.80
2022-11-21T22:41:47.196Z,4.80
2022-11-21T22:44:15.124Z,4.90
2022-11-21T22:46:44.491Z,4.90
2022-11-21T22:49:12.617Z,4.90
2022-11-21T22:51:40.519Z,4.80
2022-11-21T22:54:08.782Z,4.60
2022-11-21T22:56:36.681Z,4.60
2022-11-21T22:59:04.837Z,4.60
2022-11-21T23:01:33.994Z,4.60
2022-11-21T23:04:03.684Z,4.60
2022-11-21T23:06:31.908Z,4.60
2022-11-21T23:08:59.844Z,4.60
2022-11-21T23:11:29.666Z,4.60
2022-11-21T23:13:58.254Z,4.50
2022-11-21T23:16:26.706Z,4.50
2022-11-21T23:18:55.817Z,4.50
2022-11-21T23:21:25.296Z,4.60
2022-11-21T23:23:53.234Z,4.80
2022-11-21T23:26:21.500Z,4.80
2022-11-21T23:28:49.389Z,4.80
2022-11-21T23:31:17.325Z,4.90
2022-11-21T23:33:45.689Z,4.90
2022-11-21T23:36:14.066Z,4.80
2022-11-21T23:38:43.603Z,4.90
2022-11-21T23:41:11.840Z,4.90
2022-11-21T23:43:40.018Z,4.80
2022-11-21T23:46:07.914Z,4.90
2022-11-21T23:48:36.655Z,5.00
2022-11-21T23:51:04.599Z,5.00
2022-11-21T23:53:33.066Z,5.00
2022-11-21T23:56:02.497Z,5.00
2022-11-21T23:58:30.573Z,5.10
